Earlysville, Virginia
Current Conditions -  °F | °C
As of 3:53 AM on Thursday 23 Oct 2014 (Local Time) from KCHO Reporting Station
Clear Clear  
Wind Chill: 52°   Ceiling: Unl
Heat Index: 52°   Visibility: 10mi
Dew Point: 39°   Wind: 8mph
Humidity: 61%   Direction: 310°NW
Pressure: 29.93"   Gusts: 17mph
Location:  38.16°N, 78.49°W
Report Text: KCHO 230753Z AUTO 31007G15KT 10SM CLR 11/04 A2993 RMK AO2 SLP132 T01110039
Loading
Personal Weather Stations






























Interactive Weather Map
Tropical Storm Tracking
New forecast layout! Learn more

10-Day Weather Forecast

Advertisements
Track Severe Weather on mobile